sensor_id;sensor_type;location;lat;lon;timestamp;temperature;humidity
22212;DHT22;11275;52.488;13.462;2023-07-24T00:00:23;20.80;99.90
22212;DHT22;11275;52.488;13.462;2023-07-24T00:02:49;20.80;99.90
22212;DHT22;11275;52.488;13.462;2023-07-24T00:05:14;20.90;99.90
22212;DHT22;11275;52.488;13.462;2023-07-24T00:07:40;20.90;99.90
22212;DHT22;11275;52.488;13.462;2023-07-24T00:10:06;21.00;99.90
22212;DHT22;11275;52.488;13.462;2023-07-24T00:12:32;21.00;99.90
22212;DHT22;11275;52.488;13.462;2023-07-24T00:14:58;21.00;99.90
22212;DHT22;11275;52.488;13.462;2023-07-24T00:17:24;21.10;99.90
22212;DHT22;11275;52.488;13.462;2023-07-24T00:19:49;21.10;99.90
22212;DHT22;11275;52.488;13.462;2023-07-24T00:22:15;21.20;99.90
22212;DHT22;11275;52.488;13.462;2023-07-24T00:24:40;21.10;99.90
22212;DHT22;11275;52.488;13.462;2023-07-24T00:27:06;21.20;99.90
22212;DHT22;11275;52.488;13.462;2023-07-24T00:29:32;21.20;99.90
22212;DHT22;11275;52.488;13.462;2023-07-24T00:31:57;21.20;99.90
22212;DHT22;11275;52.488;13.462;2023-07-24T00:34:23;21.20;99.90
22212;DHT22;11275;52.488;13.462;2023-07-24T00:36:48;21.20;99.90
22212;DHT22;11275;52.488;13.462;2023-07-24T00:39:14;21.20;99.90
22212;DHT22;11275;52.488;13.462;2023-07-24T00:41:41;21.20;99.90
22212;DHT22;11275;52.488;13.462;2023-07-24T00:44:08;21.20;99.90
22212;DHT22;11275;52.488;13.462;2023-07-24T00:46:34;21.10;99.90
22212;DHT22;11275;52.488;13.462;2023-07-24T00:49:02;21.10;99.90
22212;DHT22;11275;52.488;13.462;2023-07-24T00:51:28;21.10;99.90
22212;DHT22;11275;52.488;13.462;2023-07-24T00:53:59;21.20;99.90
22212;DHT22;11275;52.488;13.462;2023-07-24T00:56:26;21.10;99.90
22212;DHT22;11275;52.488;13.462;2023-07-24T00:58:52;21.10;99.90
22212;DHT22;11275;52.488;13.462;2023-07-24T01:01:21;21.10;99.90
22212;DHT22;11275;52.488;13.462;2023-07-24T01:03:46;21.10;99.90
22212;DHT22;11275;52.488;13.462;2023-07-24T01:06:12;21.10;99.90
22212;DHT22;11275;52.488;13.462;2023-07-24T01:08:38;21.10;99.90
22212;DHT22;11275;52.488;13.462;2023-07-24T01:11:12;21.10;99.90
22212;DHT22;11275;52.488;13.462;2023-07-24T01:13:47;21.00;99.90
22212;DHT22;11275;52.488;13.462;2023-07-24T01:16:18;21.00;99.90
22212;DHT22;11275;52.488;13.462;2023-07-24T01:18:45;20.90;99.90
22212;DHT22;11275;52.488;13.462;2023-07-24T01:21:12;20.90;99.90
22212;DHT22;11275;52.488;13.462;2023-07-24T01:23:59;20.90;99.90
22212;DHT22;11275;52.488;13.462;2023-07-24T01:26:29;20.90;99.90
22212;DHT22;11275;52.488;13.462;2023-07-24T01:28:54;20.90;99.90
22212;DHT22;11275;52.488;13.462;2023-07-24T01:31:20;20.90;99.90
22212;DHT22;11275;52.488;13.462;2023-07-24T01:33:46;20.90;99.90
22212;DHT22;11275;52.488;13.462;2023-07-24T01:36:13;21.00;99.90
22212;DHT22;11275;52.488;13.462;2023-07-24T01:38:40;21.00;99.90
22212;DHT22;11275;52.488;13.462;2023-07-24T01:41:06;21.00;99.90
22212;DHT22;11275;52.488;13.462;2023-07-24T01:43:32;21.00;99.90
22212;DHT22;11275;52.488;13.462;2023-07-24T01:45:58;21.00;99.90
22212;DHT22;11275;52.488;13.462;2023-07-24T01:48:24;21.00;99.90
22212;DHT22;11275;52.488;13.462;2023-07-24T01:50:49;21.00;99.90
22212;DHT22;11275;52.488;13.462;2023-07-24T01:53:15;21.00;99.90
22212;DHT22;11275;52.488;13.462;2023-07-24T01:55:41;21.00;99.90
22212;DHT22;11275;52.488;13.462;2023-07-24T01:58:07;21.00;99.90
22212;DHT22;11275;52.488;13.462;2023-07-24T02:00:33;21.00;99.90
22212;DHT22;11275;52.488;13.462;2023-07-24T02:02:58;21.00;99.90
22212;DHT22;11275;52.488;13.462;2023-07-24T02:05:25;21.00;99.90
22212;DHT22;11275;52.488;13.462;2023-07-24T02:07:51;21.00;99.90
22212;DHT22;11275;52.488;13.462;2023-07-24T02:10:16;21.00;99.90
22212;DHT22;11275;52.488;13.462;2023-07-24T02:12:42;21.00;99.90
22212;DHT22;11275;52.488;13.462;2023-07-24T02:15:08;21.00;99.90
22212;DHT22;11275;52.488;13.462;2023-07-24T02:17:34;21.00;99.90
22212;DHT22;11275;52.488;13.462;2023-07-24T02:19:59;21.00;99.90
22212;DHT22;11275;52.488;13.462;2023-07-24T02:22:25;21.00;99.90
22212;DHT22;11275;52.488;13.462;2023-07-24T02:24:51;21.00;99.90
22212;DHT22;11275;52.488;13.462;2023-07-24T02:27:30;21.00;99.90
22212;DHT22;11275;52.488;13.462;2023-07-24T02:29:57;21.00;99.90
22212;DHT22;11275;52.488;13.462;2023-07-24T02:32:23;21.00;99.90
22212;DHT22;11275;52.488;13.462;2023-07-24T02:34:50;21.10;99.90
22212;DHT22;11275;52.488;13.462;2023-07-24T02:37:15;21.00;99.90
22212;DHT22;11275;52.488;13.462;2023-07-24T02:39:41;21.10;99.90
22212;DHT22;11275;52.488;13.462;2023-07-24T02:42:06;21.00;99.90
22212;DHT22;11275;52.488;13.462;2023-07-24T02:44:34;21.10;99.90
22212;DHT22;11275;52.488;13.462;2023-07-24T02:46:59;21.10;99.90
22212;DHT22;11275;52.488;13.462;2023-07-24T02:49:25;21.00;99.90
22212;DHT22;11275;52.488;13.462;2023-07-24T02:51:51;21.10;99.90
22212;DHT22;11275;52.488;13.462;2023-07-24T02:54:16;21.10;99.90
22212;DHT22;11275;52.488;13.462;2023-07-24T02:56:42;21.10;99.90
22212;DHT22;11275;52.488;13.462;2023-07-24T02:59:08;21.10;99.90
22212;DHT22;11275;52.488;13.462;2023-07-24T03:01:33;21.10;99.90
22212;DHT22;11275;52.488;13.462;2023-07-24T03:03:59;21.00;99.90
22212;DHT22;11275;52.488;13.462;2023-07-24T03:06:25;21.10;99.90
22212;DHT22;11275;52.488;13.462;2023-07-24T03:08:51;21.10;99.90
22212;DHT22;11275;52.488;13.462;2023-07-24T03:11:16;21.10;99.90
22212;DHT22;11275;52.488;13.462;2023-07-24T03:13:42;21.10;99.90
22212;DHT22;11275;52.488;13.462;2023-07-24T03:16:08;21.00;99.90
22212;DHT22;11275;52.488;13.462;2023-07-24T03:18:34;21.10;99.90
22212;DHT22;11275;52.488;13.462;2023-07-24T03:20:59;21.10;99.90
22212;DHT22;11275;52.488;13.462;2023-07-24T03:23:25;21.10;99.90
22212;DHT22;11275;52.488;13.462;2023-07-24T03:25:51;21.10;99.90
22212;DHT22;11275;52.488;13.462;2023-07-24T03:28:17;21.10;99.90
22212;DHT22;11275;52.488;13.462;2023-07-24T03:30:42;21.10;99.90
22212;DHT22;11275;52.488;13.462;2023-07-24T03:33:08;21.10;99.90
22212;DHT22;11275;52.488;13.462;2023-07-24T03:35:34;21.10;99.90
22212;DHT22;11275;52.488;13.462;2023-07-24T03:38:00;21.10;99.90
22212;DHT22;11275;52.488;13.462;2023-07-24T03:40:26;21.20;99.90
22212;DHT22;11275;52.488;13.462;2023-07-24T03:42:52;21.20;99.90
22212;DHT22;11275;52.488;13.462;2023-07-24T03:45:18;21.20;99.90
22212;DHT22;11275;52.488;13.462;2023-07-24T03:47:43;21.20;99.90
22212;DHT22;11275;52.488;13.462;2023-07-24T03:50:09;21.20;99.90
22212;DHT22;11275;52.488;13.462;2023-07-24T03:52:35;21.20;99.90
22212;DHT22;11275;52.488;13.462;2023-07-24T03:55:01;21.20;99.90
22212;DHT22;11275;52.488;13.462;2023-07-24T03:57:27;21.20;99.90
22212;DHT22;11275;52.488;13.462;2023-07-24T03:59:52;21.20;99.90
22212;DHT22;11275;52.488;13.462;2023-07-24T04:02:18;21.20;99.90
22212;DHT22;11275;52.488;13.462;2023-07-24T04:04:44;21.20;99.90
22212;DHT22;11275;52.488;13.462;2023-07-24T04:07:10;21.20;99.90
22212;DHT22;11275;52.488;13.462;2023-07-24T04:09:35;21.10;99.90
22212;DHT22;11275;52.488;13.462;2023-07-24T04:12:01;21.10;99.90
22212;DHT22;11275;52.488;13.462;2023-07-24T04:14:26;21.10;99.90
22212;DHT22;11275;52.488;13.462;2023-07-24T04:16:52;21.10;99.90
22212;DHT22;11275;52.488;13.462;2023-07-24T04:19:18;21.10;99.90
22212;DHT22;11275;52.488;13.462;2023-07-24T04:21:44;21.10;99.90
22212;DHT22;11275;52.488;13.462;2023-07-24T04:24:09;21.10;99.90
22212;DHT22;11275;52.488;13.462;2023-07-24T04:26:35;21.20;99.90
22212;DHT22;11275;52.488;13.462;2023-07-24T04:29:01;21.20;99.90
22212;DHT22;11275;52.488;13.462;2023-07-24T04:31:26;21.20;99.90
22212;DHT22;11275;52.488;13.462;2023-07-24T04:33:52;21.30;99.90
22212;DHT22;11275;52.488;13.462;2023-07-24T04:36:17;21.30;99.90
22212;DHT22;11275;52.488;13.462;2023-07-24T04:38:43;21.30;99.90
22212;DHT22;11275;52.488;13.462;2023-07-24T04:41:09;21.40;99.90
22212;DHT22;11275;52.488;13.462;2023-07-24T04:43:34;21.40;99.90
22212;DHT22;11275;52.488;13.462;2023-07-24T04:46:00;21.40;99.90
22212;DHT22;11275;52.488;13.462;2023-07-24T04:48:25;21.40;99.90
22212;DHT22;11275;52.488;13.462;2023-07-24T04:50:55;21.50;99.90
22212;DHT22;11275;52.488;13.462;2023-07-24T04:53:21;21.50;99.90
22212;DHT22;11275;52.488;13.462;2023-07-24T04:55:47;21.50;99.90
22212;DHT22;11275;52.488;13.462;2023-07-24T04:58:12;21.60;99.90
22212;DHT22;11275;52.488;13.462;2023-07-24T05:00:38;21.60;99.90
22212;DHT22;11275;52.488;13.462;2023-07-24T05:03:04;21.70;99.90
22212;DHT22;11275;52.488;13.462;2023-07-24T05:05:30;21.80;99.90
22212;DHT22;11275;52.488;13.462;2023-07-24T05:07:57;21.80;99.90
22212;DHT22;11275;52.488;13.462;2023-07-24T05:10:22;21.80;99.90
22212;DHT22;11275;52.488;13.462;2023-07-24T05:12:48;21.80;99.90
22212;DHT22;11275;52.488;13.462;2023-07-24T05:15:14;21.90;99.90
22212;DHT22;11275;52.488;13.462;2023-07-24T05:17:43;21.80;99.90
22212;DHT22;11275;52.488;13.462;2023-07-24T05:20:09;21.80;99.90
22212;DHT22;11275;52.488;13.462;2023-07-24T05:22:35;21.90;99.90
22212;DHT22;11275;52.488;13.462;2023-07-24T05:25:00;22.00;99.90
22212;DHT22;11275;52.488;13.462;2023-07-24T05:27:26;22.10;99.90
22212;DHT22;11275;52.488;13.462;2023-07-24T05:29:52;22.20;99.90
22212;DHT22;11275;52.488;13.462;2023-07-24T05:32:17;22.30;99.90
22212;DHT22;11275;52.488;13.462;2023-07-24T05:34:43;22.30;99.90
22212;DHT22;11275;52.488;13.462;2023-07-24T05:37:09;22.30;99.90
22212;DHT22;11275;52.488;13.462;2023-07-24T05:39:35;22.40;99.90
22212;DHT22;11275;52.488;13.462;2023-07-24T05:42:00;22.30;99.90
22212;DHT22;11275;52.488;13.462;2023-07-24T05:44:26;22.30;99.90
22212;DHT22;11275;52.488;13.462;2023-07-24T05:46:52;22.30;99.90
22212;DHT22;11275;52.488;13.462;2023-07-24T05:49:17;22.30;99.90
22212;DHT22;11275;52.488;13.462;2023-07-24T05:51:43;22.30;99.90
22212;DHT22;11275;52.488;13.462;2023-07-24T05:54:08;22.20;99.90
22212;DHT22;11275;52.488;13.462;2023-07-24T05:56:34;22.20;99.90
22212;DHT22;11275;52.488;13.462;2023-07-24T05:59:00;22.20;99.90
22212;DHT22;11275;52.488;13.462;2023-07-24T06:01:25;22.20;99.90
22212;DHT22;11275;52.488;13.462;2023-07-24T06:03:51;22.10;99.90
22212;DHT22;11275;52.488;13.462;2023-07-24T06:06:16;22.10;99.90
22212;DHT22;11275;52.488;13.462;2023-07-24T06:08:42;22.10;99.90
22212;DHT22;11275;52.488;13.462;2023-07-24T06:11:08;22.10;99.90
22212;DHT22;11275;52.488;13.462;2023-07-24T06:13:34;22.10;99.90
22212;DHT22;11275;52.488;13.462;2023-07-24T06:15:59;22.10;99.90
22212;DHT22;11275;52.488;13.462;2023-07-24T06:18:25;22.20;99.90
22212;DHT22;11275;52.488;13.462;2023-07-24T06:20:54;22.20;99.90
22212;DHT22;11275;52.488;13.462;2023-07-24T06:23:20;22.20;99.90
22212;DHT22;11275;52.488;13.462;2023-07-24T06:25:45;22.20;99.90
22212;DHT22;11275;52.488;13.462;2023-07-24T06:28:11;22.20;99.90
22212;DHT22;11275;52.488;13.462;2023-07-24T06:30:38;22.20;99.90
22212;DHT22;11275;52.488;13.462;2023-07-24T06:33:04;22.20;99.90
22212;DHT22;11275;52.488;13.462;2023-07-24T06:35:30;22.20;99.90
22212;DHT22;11275;52.488;13.462;2023-07-24T06:37:56;22.30;99.90
22212;DHT22;11275;52.488;13.462;2023-07-24T06:40:21;22.30;99.90
22212;DHT22;11275;52.488;13.462;2023-07-24T06:42:47;22.30;99.90
22212;DHT22;11275;52.488;13.462;2023-07-24T06:45:13;22.30;99.90
22212;DHT22;11275;52.488;13.462;2023-07-24T06:47:38;22.40;99.90
22212;DHT22;11275;52.488;13.462;2023-07-24T06:50:06;22.40;99.90
22212;DHT22;11275;52.488;13.462;2023-07-24T06:52:32;22.40;99.90
22212;DHT22;11275;52.488;13.462;2023-07-24T06:54:58;22.50;99.90
22212;DHT22;11275;52.488;13.462;2023-07-24T06:57:24;22.50;99.90
22212;DHT22;11275;52.488;13.462;2023-07-24T06:59:50;22.60;99.90
22212;DHT22;11275;52.488;13.462;2023-07-24T07:02:16;22.70;99.90
22212;DHT22;11275;52.488;13.462;2023-07-24T07:04:41;22.80;99.90
22212;DHT22;11275;52.488;13.462;2023-07-24T07:07:07;22.80;99.90
22212;DHT22;11275;52.488;13.462;2023-07-24T07:09:33;22.80;99.90
22212;DHT22;11275;52.488;13.462;2023-07-24T07:11:58;22.80;99.90
22212;DHT22;11275;52.488;13.462;2023-07-24T07:14:24;22.80;99.90
22212;DHT22;11275;52.488;13.462;2023-07-24T07:16:50;22.80;99.90
22212;DHT22;11275;52.488;13.462;2023-07-24T07:19:15;22.80;99.90
22212;DHT22;11275;52.488;13.462;2023-07-24T07:21:41;22.80;99.90
22212;DHT22;11275;52.488;13.462;2023-07-24T07:24:06;22.80;99.90
22212;DHT22;11275;52.488;13.462;2023-07-24T07:26:32;22.80;99.90
22212;DHT22;11275;52.488;13.462;2023-07-24T07:28:59;22.90;99.90
22212;DHT22;11275;52.488;13.462;2023-07-24T07:31:25;22.90;99.90
22212;DHT22;11275;52.488;13.462;2023-07-24T07:33:50;23.00;99.90
22212;DHT22;11275;52.488;13.462;2023-07-24T07:36:16;23.10;99.90
22212;DHT22;11275;52.488;13.462;2023-07-24T07:38:43;23.20;99.90
22212;DHT22;11275;52.488;13.462;2023-07-24T07:41:08;23.20;99.90
22212;DHT22;11275;52.488;13.462;2023-07-24T07:43:34;23.30;99.90
22212;DHT22;11275;52.488;13.462;2023-07-24T07:46:02;23.30;99.90
22212;DHT22;11275;52.488;13.462;2023-07-24T07:48:27;23.40;99.90
22212;DHT22;11275;52.488;13.462;2023-07-24T07:50:53;23.40;99.90
22212;DHT22;11275;52.488;13.462;2023-07-24T07:53:19;23.40;99.90
22212;DHT22;11275;52.488;13.462;2023-07-24T07:55:55;23.40;99.90
22212;DHT22;11275;52.488;13.462;2023-07-24T07:58:23;23.40;99.90
22212;DHT22;11275;52.488;13.462;2023-07-24T08:00:48;23.50;99.90
22212;DHT22;11275;52.488;13.462;2023-07-24T08:03:14;23.60;99.90
22212;DHT22;11275;52.488;13.462;2023-07-24T08:05:39;23.60;99.90
22212;DHT22;11275;52.488;13.462;2023-07-24T08:08:05;23.70;99.90
22212;DHT22;11275;52.488;13.462;2023-07-24T08:10:31;23.70;99.90
22212;DHT22;11275;52.488;13.462;2023-07-24T08:12:56;23.80;99.90
22212;DHT22;11275;52.488;13.462;2023-07-24T08:15:22;23.90;99.90
22212;DHT22;11275;52.488;13.462;2023-07-24T08:17:47;24.10;99.90
22212;DHT22;11275;52.488;13.462;2023-07-24T08:20:13;24.30;99.90
22212;DHT22;11275;52.488;13.462;2023-07-24T08:22:39;24.30;99.90
22212;DHT22;11275;52.488;13.462;2023-07-24T08:25:05;24.30;99.90
22212;DHT22;11275;52.488;13.462;2023-07-24T08:27:30;24.30;99.90
22212;DHT22;11275;52.488;13.462;2023-07-24T08:29:57;24.30;99.90
22212;DHT22;11275;52.488;13.462;2023-07-24T08:32:22;24.40;99.90
22212;DHT22;11275;52.488;13.462;2023-07-24T08:34:48;24.50;99.80
22212;DHT22;11275;52.488;13.462;2023-07-24T08:37:14;24.60;99.70
22212;DHT22;11275;52.488;13.462;2023-07-24T08:39:39;24.80;99.20
22212;DHT22;11275;52.488;13.462;2023-07-24T08:42:11;25.00;98.80
22212;DHT22;11275;52.488;13.462;2023-07-24T08:44:38;25.20;98.50
22212;DHT22;11275;52.488;13.462;2023-07-24T08:47:04;25.10;98.50
22212;DHT22;11275;52.488;13.462;2023-07-24T08:49:30;25.10;98.40
22212;DHT22;11275;52.488;13.462;2023-07-24T08:51:57;25.10;98.50
22212;DHT22;11275;52.488;13.462;2023-07-24T08:54:24;25.10;98.40
22212;DHT22;11275;52.488;13.462;2023-07-24T08:56:52;25.10;98.30
22212;DHT22;11275;52.488;13.462;2023-07-24T08:59:19;25.10;98.40
22212;DHT22;11275;52.488;13.462;2023-07-24T09:01:44;25.10;98.40
22212;DHT22;11275;52.488;13.462;2023-07-24T09:04:10;25.30;98.40
22212;DHT22;11275;52.488;13.462;2023-07-24T09:06:37;25.40;98.20
22212;DHT22;11275;52.488;13.462;2023-07-24T09:09:14;25.50;97.80
22212;DHT22;11275;52.488;13.462;2023-07-24T09:11:48;25.60;97.80
22212;DHT22;11275;52.488;13.462;2023-07-24T09:14:23;25.50;97.80
22212;DHT22;11275;52.488;13.462;2023-07-24T09:16:49;25.50;97.40
22212;DHT22;11275;52.488;13.462;2023-07-24T09:19:19;25.60;97.10
22212;DHT22;11275;52.488;13.462;2023-07-24T09:21:45;25.60;97.10
22212;DHT22;11275;52.488;13.462;2023-07-24T09:24:12;25.70;96.80
22212;DHT22;11275;52.488;13.462;2023-07-24T09:26:52;25.60;96.80
22212;DHT22;11275;52.488;13.462;2023-07-24T09:29:18;25.60;97.20
22212;DHT22;11275;52.488;13.462;2023-07-24T09:31:44;25.60;97.20
22212;DHT22;11275;52.488;13.462;2023-07-24T09:34:18;25.60;96.90
22212;DHT22;11275;52.488;13.462;2023-07-24T09:36:46;25.70;96.90
22212;DHT22;11275;52.488;13.462;2023-07-24T09:39:12;25.70;96.60
22212;DHT22;11275;52.488;13.462;2023-07-24T09:41:38;25.80;96.50
22212;DHT22;11275;52.488;13.462;2023-07-24T09:44:05;25.90;96.10
22212;DHT22;11275;52.488;13.462;2023-07-24T09:46:30;25.90;96.00
22212;DHT22;11275;52.488;13.462;2023-07-24T09:48:57;25.90;95.90
22212;DHT22;11275;52.488;13.462;2023-07-24T09:51:23;26.00;95.80
22212;DHT22;11275;52.488;13.462;2023-07-24T09:53:58;26.00;95.90
22212;DHT22;11275;52.488;13.462;2023-07-24T09:56:26;26.30;95.70
22212;DHT22;11275;52.488;13.462;2023-07-24T09:58:53;26.50;95.40
22212;DHT22;11275;52.488;13.462;2023-07-24T10:01:20;26.60;95.20
22212;DHT22;11275;52.488;13.462;2023-07-24T10:03:47;26.60;95.10
22212;DHT22;11275;52.488;13.462;2023-07-24T10:06:16;26.60;94.80
22212;DHT22;11275;52.488;13.462;2023-07-24T10:08:42;26.60;94.30
22212;DHT22;11275;52.488;13.462;2023-07-24T10:11:09;26.40;94.50
22212;DHT22;11275;52.488;13.462;2023-07-24T10:13:36;26.20;94.60
22212;DHT22;11275;52.488;13.462;2023-07-24T10:16:03;26.20;94.80
22212;DHT22;11275;52.488;13.462;2023-07-24T10:18:32;26.20;94.90
22212;DHT22;11275;52.488;13.462;2023-07-24T10:21:05;26.30;95.10
22212;DHT22;11275;52.488;13.462;2023-07-24T10:23:42;26.40;94.60
22212;DHT22;11275;52.488;13.462;2023-07-24T10:26:08;26.50;94.20
22212;DHT22;11275;52.488;13.462;2023-07-24T10:28:36;26.50;94.30
22212;DHT22;11275;52.488;13.462;2023-07-24T10:31:25;26.40;93.40
22212;DHT22;11275;52.488;13.462;2023-07-24T10:33:55;26.40;93.50
22212;DHT22;11275;52.488;13.462;2023-07-24T10:36:22;26.40;93.90
22212;DHT22;11275;52.488;13.462;2023-07-24T10:38:57;26.40;93.90
22212;DHT22;11275;52.488;13.462;2023-07-24T10:41:37;26.40;93.10
22212;DHT22;11275;52.488;13.462;2023-07-24T10:44:03;26.40;93.40
22212;DHT22;11275;52.488;13.462;2023-07-24T10:46:40;26.50;93.20
22212;DHT22;11275;52.488;13.462;2023-07-24T10:49:12;26.50;93.00
22212;DHT22;11275;52.488;13.462;2023-07-24T10:51:38;26.60;92.40
22212;DHT22;11275;52.488;13.462;2023-07-24T10:54:05;26.60;92.50
22212;DHT22;11275;52.488;13.462;2023-07-24T10:56:31;26.70;92.00
22212;DHT22;11275;52.488;13.462;2023-07-24T10:58:56;26.70;91.70
22212;DHT22;11275;52.488;13.462;2023-07-24T11:01:27;26.70;91.50
22212;DHT22;11275;52.488;13.462;2023-07-24T11:03:54;26.70;91.70
22212;DHT22;11275;52.488;13.462;2023-07-24T11:06:20;26.80;91.10
22212;DHT22;11275;52.488;13.462;2023-07-24T11:08:54;26.80;91.20
22212;DHT22;11275;52.488;13.462;2023-07-24T11:11:27;27.00;90.10
22212;DHT22;11275;52.488;13.462;2023-07-24T11:13:52;27.10;89.20
22212;DHT22;11275;52.488;13.462;2023-07-24T11:16:18;27.20;89.20
22212;DHT22;11275;52.488;13.462;2023-07-24T11:18:48;27.30;89.50
22212;DHT22;11275;52.488;13.462;2023-07-24T11:21:15;27.30;89.30
22212;DHT22;11275;52.488;13.462;2023-07-24T11:24:00;27.40;89.30
22212;DHT22;11275;52.488;13.462;2023-07-24T11:26:26;27.50;89.30
22212;DHT22;11275;52.488;13.462;2023-07-24T11:28:53;27.60;89.40
22212;DHT22;11275;52.488;13.462;2023-07-24T11:31:19;27.70;89.00
22212;DHT22;11275;52.488;13.462;2023-07-24T11:33:55;27.60;88.60
22212;DHT22;11275;52.488;13.462;2023-07-24T11:36:22;27.70;88.40
22212;DHT22;11275;52.488;13.462;2023-07-24T11:38:48;27.80;88.30
22212;DHT22;11275;52.488;13.462;2023-07-24T11:41:16;27.70;88.20
22212;DHT22;11275;52.488;13.462;2023-07-24T11:43:49;27.70;88.10
22212;DHT22;11275;52.488;13.462;2023-07-24T11:48:50;27.80;87.20
22212;DHT22;11275;52.488;13.462;2023-07-24T11:51:19;27.90;87.40
22212;DHT22;11275;52.488;13.462;2023-07-24T11:53:44;28.00;86.90
22212;DHT22;11275;52.488;13.462;2023-07-24T11:56:15;28.10;86.70
22212;DHT22;11275;52.488;13.462;2023-07-24T11:58:41;28.10;86.00
22212;DHT22;11275;52.488;13.462;2023-07-24T12:01:06;28.00;85.90
22212;DHT22;11275;52.488;13.462;2023-07-24T12:03:32;28.00;85.70
22212;DHT22;11275;52.488;13.462;2023-07-24T12:05:58;27.90;85.60
22212;DHT22;11275;52.488;13.462;2023-07-24T12:08:34;27.90;85.00
22212;DHT22;11275;52.488;13.462;2023-07-24T12:11:01;27.80;85.60
22212;DHT22;11275;52.488;13.462;2023-07-24T12:13:26;27.70;85.80
22212;DHT22;11275;52.488;13.462;2023-07-24T12:15:53;27.60;85.60
22212;DHT22;11275;52.488;13.462;2023-07-24T12:18:19;27.50;84.90
22212;DHT22;11275;52.488;13.462;2023-07-24T12:20:45;27.40;85.60
22212;DHT22;11275;52.488;13.462;2023-07-24T12:23:11;27.30;85.60
22212;DHT22;11275;52.488;13.462;2023-07-24T12:25:36;27.20;84.90
22212;DHT22;11275;52.488;13.462;2023-07-24T12:28:02;27.10;85.30
22212;DHT22;11275;52.488;13.462;2023-07-24T12:30:28;27.00;85.40
22212;DHT22;11275;52.488;13.462;2023-07-24T12:32:53;27.00;85.80
22212;DHT22;11275;52.488;13.462;2023-07-24T12:35:19;26.90;88.50
22212;DHT22;11275;52.488;13.462;2023-07-24T12:37:45;26.80;90.00
22212;DHT22;11275;52.488;13.462;2023-07-24T12:40:11;26.70;90.60
22212;DHT22;11275;52.488;13.462;2023-07-24T12:42:37;26.50;91.20
22212;DHT22;11275;52.488;13.462;2023-07-24T12:45:02;26.40;91.80
22212;DHT22;11275;52.488;13.462;2023-07-24T12:47:30;26.30;92.30
22212;DHT22;11275;52.488;13.462;2023-07-24T12:49:56;26.20;92.50
22212;DHT22;11275;52.488;13.462;2023-07-24T12:52:23;26.30;92.80
22212;DHT22;11275;52.488;13.462;2023-07-24T12:54:49;26.40;92.70
22212;DHT22;11275;52.488;13.462;2023-07-24T12:57:15;26.50;92.80
22212;DHT22;11275;52.488;13.462;2023-07-24T12:59:41;26.50;93.00
22212;DHT22;11275;52.488;13.462;2023-07-24T13:02:06;26.50;93.50
22212;DHT22;11275;52.488;13.462;2023-07-24T13:04:32;26.40;93.70
22212;DHT22;11275;52.488;13.462;2023-07-24T13:06:58;26.40;93.80
22212;DHT22;11275;52.488;13.462;2023-07-24T13:09:25;26.30;94.10
22212;DHT22;11275;52.488;13.462;2023-07-24T13:11:51;26.20;94.50
22212;DHT22;11275;52.488;13.462;2023-07-24T13:14:20;26.10;94.60
22212;DHT22;11275;52.488;13.462;2023-07-24T13:16:45;26.00;94.80
22212;DHT22;11275;52.488;13.462;2023-07-24T13:19:11;26.00;95.20
22212;DHT22;11275;52.488;13.462;2023-07-24T13:21:37;26.00;95.40
22212;DHT22;11275;52.488;13.462;2023-07-24T13:24:03;25.90;95.60
22212;DHT22;11275;52.488;13.462;2023-07-24T13:26:28;26.00;95.50
22212;DHT22;11275;52.488;13.462;2023-07-24T13:28:54;26.20;95.40
22212;DHT22;11275;52.488;13.462;2023-07-24T13:31:20;26.30;95.30
22212;DHT22;11275;52.488;13.462;2023-07-24T13:33:47;26.40;95.00
22212;DHT22;11275;52.488;13.462;2023-07-24T13:36:13;26.50;95.10
22212;DHT22;11275;52.488;13.462;2023-07-24T13:38:39;26.50;95.00
22212;DHT22;11275;52.488;13.462;2023-07-24T13:41:05;26.50;94.90
22212;DHT22;11275;52.488;13.462;2023-07-24T13:43:32;26.60;94.80
22212;DHT22;11275;52.488;13.462;2023-07-24T13:45:58;26.80;94.90
22212;DHT22;11275;52.488;13.462;2023-07-24T13:48:26;27.00;94.60
22212;DHT22;11275;52.488;13.462;2023-07-24T13:50:52;27.10;94.40
22212;DHT22;11275;52.488;13.462;2023-07-24T13:53:18;27.10;94.40
22212;DHT22;11275;52.488;13.462;2023-07-24T13:55:44;27.10;94.30
22212;DHT22;11275;52.488;13.462;2023-07-24T13:58:09;27.00;94.70
22212;DHT22;11275;52.488;13.462;2023-07-24T14:00:35;26.80;94.90
22212;DHT22;11275;52.488;13.462;2023-07-24T14:03:01;26.80;95.10
22212;DHT22;11275;52.488;13.462;2023-07-24T14:05:26;26.90;95.20
22212;DHT22;11275;52.488;13.462;2023-07-24T14:07:52;26.90;95.40
22212;DHT22;11275;52.488;13.462;2023-07-24T14:10:18;26.90;95.50
22212;DHT22;11275;52.488;13.462;2023-07-24T14:12:43;26.80;95.60
22212;DHT22;11275;52.488;13.462;2023-07-24T14:15:09;26.80;95.70
22212;DHT22;11275;52.488;13.462;2023-07-24T14:17:35;26.60;96.30
22212;DHT22;11275;52.488;13.462;2023-07-24T14:20:04;26.30;97.10
22212;DHT22;11275;52.488;13.462;2023-07-24T14:22:30;26.30;97.30
22212;DHT22;11275;52.488;13.462;2023-07-24T14:24:55;26.30;97.90
22212;DHT22;11275;52.488;13.462;2023-07-24T14:27:21;26.40;98.10
22212;DHT22;11275;52.488;13.462;2023-07-24T14:29:47;26.40;98.10
22212;DHT22;11275;52.488;13.462;2023-07-24T14:32:12;26.40;98.40
22212;DHT22;11275;52.488;13.462;2023-07-24T14:34:38;26.20;98.80
22212;DHT22;11275;52.488;13.462;2023-07-24T14:37:04;26.30;98.60
22212;DHT22;11275;52.488;13.462;2023-07-24T14:39:30;26.40;98.60
22212;DHT22;11275;52.488;13.462;2023-07-24T14:41:55;26.40;98.50
22212;DHT22;11275;52.488;13.462;2023-07-24T14:44:21;26.40;98.40
22212;DHT22;11275;52.488;13.462;2023-07-24T14:46:46;26.40;98.40
22212;DHT22;11275;52.488;13.462;2023-07-24T14:49:12;26.50;98.20
22212;DHT22;11275;52.488;13.462;2023-07-24T14:51:38;26.50;98.30
22212;DHT22;11275;52.488;13.462;2023-07-24T14:54:03;26.50;98.90
22212;DHT22;11275;52.488;13.462;2023-07-24T14:56:29;26.30;99.70
22212;DHT22;11275;52.488;13.462;2023-07-24T14:58:54;26.20;99.70
22212;DHT22;11275;52.488;13.462;2023-07-24T15:01:20;26.10;99.90
22212;DHT22;11275;52.488;13.462;2023-07-24T15:03:46;25.90;99.90
22212;DHT22;11275;52.488;13.462;2023-07-24T15:06:11;25.90;99.90
22212;DHT22;11275;52.488;13.462;2023-07-24T15:08:37;25.90;99.90
22212;DHT22;11275;52.488;13.462;2023-07-24T15:11:03;26.00;99.90
22212;DHT22;11275;52.488;13.462;2023-07-24T15:13:28;26.10;99.90